Time;durP1;ratioP1;P1;durP2;ratioP2;P2;SDS_P1;SDS_P2;PMS_P1;PMS_P2;Temp;Humidity;BMP_temperature;BMP_pressure;BME280_temperature;BME280_humidity;BME280_pressure;Samples;Min_cycle;Max_cycle;Signal;HPM_P1;HPM_P2
2022/11/26 00:00:38;;;;;;;;;;;5.40;99.90;;;;;;5017383;28;20635;-59
2022/11/26 00:03:04;;;;;;;;;;;5.50;99.90;;;;;;5006146;28;19929;-57
2022/11/26 00:05:30;;;;;;;;;;;5.60;99.90;;;;;;5013903;28;20385;-58
2022/11/26 00:07:57;;;;;;;;;;;5.40;99.90;;;;;;5011651;28;19921;-58
2022/11/26 00:10:24;;;;;;;;;;;5.30;99.90;;;;;;5011215;28;20498;-57
2022/11/26 00:12:50;;;;;;;;;;;5.20;99.90;;;;;;5007478;28;19914;-58
2022/11/26 00:15:18;;;;;;;;;;;5.20;99.90;;;;;;5019198;28;19924;-60
2022/11/26 00:17:43;;;;;;;;;;;5.20;99.90;;;;;;5006753;28;20372;-58
2022/11/26 00:20:09;;;;;;;;;;;5.30;99.90;;;;;;5014107;28;20008;-57
2022/11/26 00:22:39;;;;;;;;;;;5.10;99.90;;;;;;5006766;28;19920;-58
2022/11/26 00:25:04;;;;;;;;;;;5.00;99.90;;;;;;5017017;28;19995;-59
2022/11/26 00:27:30;;;;;;;;;;;5.00;99.90;;;;;;5020339;28;20383;-58
2022/11/26 00:29:55;;;;;;;;;;;5.00;99.90;;;;;;5018932;28;19963;-58
2022/11/26 00:32:23;;;;;;;;;;;5.00;99.90;;;;;;5016275;28;19913;-60
2022/11/26 00:34:48;;;;;;;;;;;5.00;99.90;;;;;;5014048;28;20015;-57
2022/11/26 00:37:22;;;;;;;;;;;5.00;99.90;;;;;;5020884;28;20003;-57
2022/11/26 00:39:48;;;;;;;;;;;5.00;99.90;;;;;;5013303;28;19918;-58
2022/11/26 00:42:14;;;;;;;;;;;5.10;99.90;;;;;;5014184;28;19967;-58
2022/11/26 00:44:39;;;;;;;;;;;5.10;99.90;;;;;;5011601;28;19963;-58
2022/11/26 00:47:04;;;;;;;;;;;5.10;99.90;;;;;;5027571;28;19913;-57
2022/11/26 00:49:30;;;;;;;;;;;5.10;99.90;;;;;;5020060;28;20000;-61
2022/11/26 00:51:56;;;;;;;;;;;5.10;99.90;;;;;;5011238;28;19921;-60
2022/11/26 00:54:22;;;;;;;;;;;5.00;99.90;;;;;;5016577;28;19909;-60
2022/11/26 00:56:49;;;;;;;;;;;4.90;99.90;;;;;;5021555;28;19964;-60
2022/11/26 00:59:15;;;;;;;;;;;;;;;;;;5010108;28;19964;-60
2022/11/26 01:01:40;;;;;;;;;;;;;;;;;;5009664;28;19957;-59
2022/11/26 01:04:06;;;;;;;;;;;;;;;;;;5016343;28;19928;-58
2022/11/26 01:06:32;;;;;;;;;;;;;;;;;;5020403;28;19917;-57
2022/11/26 01:08:58;;;;;;;;;;;;;;;;;;5021868;28;19913;-58
2022/11/26 01:11:24;;;;;;;;;;;;;;;;;;5020319;28;19917;-58
2022/11/26 01:13:50;;;;;;;;;;;;;;;;;;5013014;28;20322;-60
2022/11/26 01:16:16;;;;;;;;;;;;;;;;;;5013107;28;19921;-60
2022/11/26 01:18:41;;;;;;;;;;;;;;;;;;5009086;28;19917;-58
2022/11/26 01:21:07;;;;;;;;;;;;;;;;;;5019765;28;19917;-58
2022/11/26 01:23:33;;;;;;;;;;;;;;;;;;5018975;28;20294;-57
2022/11/26 01:25:59;;;;;;;;;;;;;;;;;;5017075;28;19967;-59
2022/11/26 01:28:25;;;;;;;;;;;;;;;;;;5013249;28;19914;-60
2022/11/26 01:30:51;;;;;;;;;;;;;;;;;;5016527;28;19914;-59
2022/11/26 01:33:16;;;;;;;;;;;;;;;;;;5013661;28;20296;-58
2022/11/26 01:35:42;;;;;;;;;;;;;;;;;;5021765;28;19917;-56
2022/11/26 01:38:08;;;;;;;;;;;;;;;;;;5017189;28;19920;-57
2022/11/26 01:40:34;;;;;;;;;;;;;;;;;;5013908;28;19925;-59
2022/11/26 01:43:00;;;;;;;;;;;;;;;;;;5012578;28;20385;-59
2022/11/26 01:45:26;;;;;;;;;;;;;;;;;;5019945;28;19918;-58
2022/11/26 01:47:52;;;;;;;;;;;;;;;;;;5011429;28;19996;-60
2022/11/26 01:50:18;;;;;;;;;;;;;;;;;;5012436;28;19979;-58
2022/11/26 01:52:44;;;;;;;;;;;;;;;;;;5016101;28;19955;-58
2022/11/26 01:55:13;;;;;;;;;;;4.60;99.90;;;;;;5011579;28;19928;-58
2022/11/26 01:57:39;;;;;;;;;;;4.00;99.90;;;;;;5018540;28;19914;-59
2022/11/26 02:00:05;;;;;;;;;;;3.90;99.90;;;;;;5016552;28;19929;-59
2022/11/26 02:02:30;;;;;;;;;;;3.90;99.90;;;;;;5019409;28;20051;-60
2022/11/26 02:04:59;;;;;;;;;;;3.80;99.90;;;;;;5010638;28;19920;-60
2022/11/26 02:07:24;;;;;;;;;;;3.90;99.90;;;;;;5016748;28;19913;-58
2022/11/26 02:09:50;;;;;;;;;;;3.80;99.90;;;;;;5014543;28;20402;-60
2022/11/26 02:12:15;;;;;;;;;;;3.90;99.90;;;;;;5018181;28;19952;-58
2022/11/26 02:14:42;;;;;;;;;;;4.00;99.90;;;;;;5009784;28;20338;-58
2022/11/26 02:17:07;;;;;;;;;;;4.00;99.90;;;;;;5020278;28;19914;-59
2022/11/26 02:19:43;;;;;;;;;;;4.00;99.90;;;;;;5015738;28;20304;-58
2022/11/26 02:22:20;;;;;;;;;;;4.00;99.90;;;;;;5016606;28;19921;-57
2022/11/26 02:24:54;;;;;;;;;;;3.90;99.90;;;;;;5006242;28;20498;-58
2022/11/26 02:27:38;;;;;;;;;;;3.90;99.90;;;;;;5011166;28;19968;-57
2022/11/26 02:30:13;;;;;;;;;;;3.90;99.90;;;;;;5009688;28;20455;-59
2022/11/26 02:33:00;;;;;;;;;;;3.80;99.90;;;;;;5018019;28;19917;-58
2022/11/26 02:35:29;;;;;;;;;;;3.90;99.90;;;;;;5013160;28;19940;-57
2022/11/26 02:37:56;;;;;;;;;;;3.70;99.90;;;;;;5013568;28;19959;-57
2022/11/26 02:40:23;;;;;;;;;;;3.60;99.90;;;;;;5011393;28;19917;-59
2022/11/26 02:42:48;;;;;;;;;;;3.50;99.90;;;;;;5012546;28;19918;-58
2022/11/26 02:45:16;;;;;;;;;;;3.60;99.90;;;;;;5012352;28;19959;-58
2022/11/26 02:47:43;;;;;;;;;;;3.60;99.90;;;;;;5017774;28;20391;-59
2022/11/26 02:50:14;;;;;;;;;;;3.60;99.90;;;;;;5016462;28;19936;-57
2022/11/26 02:52:41;;;;;;;;;;;3.60;99.90;;;;;;5016924;28;19920;-56
2022/11/26 02:55:08;;;;;;;;;;;3.60;99.90;;;;;;5013731;28;19924;-58
2022/11/26 02:57:36;;;;;;;;;;;3.50;99.90;;;;;;5012963;28;19910;-56
2022/11/26 03:00:03;;;;;;;;;;;3.50;99.90;;;;;;5015147;28;19917;-56
2022/11/26 03:02:44;;;;;;;;;;;3.40;99.90;;;;;;5015464;28;19960;-56
2022/11/26 03:05:11;;;;;;;;;;;3.50;99.90;;;;;;5016412;28;19932;-59
2022/11/26 03:07:37;;;;;;;;;;;3.50;99.90;;;;;;5018341;28;19989;-57
2022/11/26 03:10:04;;;;;;;;;;;3.40;99.90;;;;;;5017165;28;19936;-57
2022/11/26 03:12:29;;;;;;;;;;;3.50;99.90;;;;;;5017307;28;19918;-60
2022/11/26 03:14:55;;;;;;;;;;;3.50;99.90;;;;;;5010290;28;20429;-60
2022/11/26 03:17:20;;;;;;;;;;;3.60;99.90;;;;;;5011402;28;20401;-58
2022/11/26 03:19:45;;;;;;;;;;;3.60;99.90;;;;;;5016841;28;20427;-60
2022/11/26 03:22:11;;;;;;;;;;;3.60;99.90;;;;;;5011300;28;19913;-56
2022/11/26 03:24:37;;;;;;;;;;;3.40;99.90;;;;;;5017595;28;19970;-57
2022/11/26 03:27:03;;;;;;;;;;;3.40;99.90;;;;;;5014039;28;20004;-60
2022/11/26 03:29:28;;;;;;;;;;;3.40;99.90;;;;;;5015392;28;19922;-58
2022/11/26 03:31:54;;;;;;;;;;;3.50;99.90;;;;;;5012259;28;19948;-58
2022/11/26 03:34:19;;;;;;;;;;;3.40;99.90;;;;;;5009252;28;19917;-58
2022/11/26 03:36:45;;;;;;;;;;;3.40;99.90;;;;;;5016295;28;19917;-57
2022/11/26 03:39:10;;;;;;;;;;;3.40;99.90;;;;;;5014774;28;19936;-56
2022/11/26 03:41:36;;;;;;;;;;;3.40;99.90;;;;;;5021737;28;19967;-58
2022/11/26 03:44:01;;;;;;;;;;;3.40;99.90;;;;;;5005399;28;19968;-57
2022/11/26 03:46:27;;;;;;;;;;;3.40;99.90;;;;;;5012170;28;19919;-59
2022/11/26 03:48:52;;;;;;;;;;;3.40;99.90;;;;;;5014662;28;19914;-58
2022/11/26 03:51:18;;;;;;;;;;;3.50;99.90;;;;;;5012162;28;19913;-60
2022/11/26 03:53:43;;;;;;;;;;;3.60;99.90;;;;;;5011475;28;19914;-59
2022/11/26 03:56:08;;;;;;;;;;;3.50;99.90;;;;;;5012032;28;20000;-60
2022/11/26 03:58:34;;;;;;;;;;;3.40;99.90;;;;;;5015486;28;19917;-60
2022/11/26 04:00:59;;;;;;;;;;;3.40;99.90;;;;;;5007769;28;19913;-59
2022/11/26 04:03:25;;;;;;;;;;;3.30;99.90;;;;;;5013586;28;19913;-59
2022/11/26 04:05:50;;;;;;;;;;;3.40;99.90;;;;;;5010621;28;20339;-58
2022/11/26 04:08:16;;;;;;;;;;;3.30;99.90;;;;;;5017624;28;19921;-59
2022/11/26 04:10:41;;;;;;;;;;;3.30;99.90;;;;;;5019802;28;19960;-59
2022/11/26 04:13:07;;;;;;;;;;;3.30;99.90;;;;;;5024012;28;20394;-58
2022/11/26 04:15:32;;;;;;;;;;;3.20;99.90;;;;;;5008853;28;20338;-61
2022/11/26 04:17:58;;;;;;;;;;;3.00;99.90;;;;;;5016175;28;19914;-57
2022/11/26 04:20:23;;;;;;;;;;;3.00;99.90;;;;;;5008845;28;19963;-59
2022/11/26 04:22:49;;;;;;;;;;;2.90;99.90;;;;;;5014584;28;19956;-58
2022/11/26 04:25:14;;;;;;;;;;;2.90;99.90;;;;;;5016324;28;20260;-56
2022/11/26 04:27:40;;;;;;;;;;;2.90;99.90;;;;;;5012812;28;19914;-59
2022/11/26 04:30:06;;;;;;;;;;;2.90;99.90;;;;;;5019483;28;20514;-58
2022/11/26 04:32:32;;;;;;;;;;;2.90;99.90;;;;;;5009395;28;19913;-59
2022/11/26 04:34:57;;;;;;;;;;;3.00;99.90;;;;;;5016657;28;19928;-56
2022/11/26 04:37:23;;;;;;;;;;;3.00;99.90;;;;;;5013105;28;19936;-60
2022/11/26 04:39:48;;;;;;;;;;;2.90;99.90;;;;;;5013097;28;19922;-60
2022/11/26 04:42:14;;;;;;;;;;;2.90;99.90;;;;;;5018663;28;20358;-59
2022/11/26 04:44:39;;;;;;;;;;;2.90;99.90;;;;;;5015806;28;19967;-58
2022/11/26 04:47:04;;;;;;;;;;;2.90;99.90;;;;;;5009905;28;19914;-59
2022/11/26 04:49:30;;;;;;;;;;;2.90;99.90;;;;;;5015000;28;19945;-59
2022/11/26 04:51:55;;;;;;;;;;;3.00;99.90;;;;;;5012190;28;19921;-59
2022/11/26 04:54:21;;;;;;;;;;;3.00;99.90;;;;;;5012990;28;19913;-60
2022/11/26 04:56:46;;;;;;;;;;;3.10;99.90;;;;;;5007658;28;20004;-58
2022/11/26 04:59:12;;;;;;;;;;;3.00;99.90;;;;;;5009919;28;20326;-56
2022/11/26 05:01:37;;;;;;;;;;;3.10;99.90;;;;;;5007019;28;20008;-57
2022/11/26 05:04:03;;;;;;;;;;;3.10;99.90;;;;;;5010026;28;20374;-57
2022/11/26 05:06:28;;;;;;;;;;;3.00;99.90;;;;;;5010038;28;20286;-59
2022/11/26 05:08:54;;;;;;;;;;;2.90;99.90;;;;;;5010190;28;20082;-58
2022/11/26 05:11:19;;;;;;;;;;;2.80;99.90;;;;;;5009271;28;20255;-56
2022/11/26 05:13:45;;;;;;;;;;;2.70;99.90;;;;;;5015550;28;19917;-58
2022/11/26 05:16:10;;;;;;;;;;;2.60;99.90;;;;;;5012493;28;20000;-56
2022/11/26 05:18:35;;;;;;;;;;;2.60;99.90;;;;;;5015493;28;19936;-58
2022/11/26 05:21:03;;;;;;;;;;;2.60;99.90;;;;;;5013297;28;19920;-57
2022/11/26 05:23:28;;;;;;;;;;;2.70;99.90;;;;;;5009125;28;19913;-58
2022/11/26 05:25:54;;;;;;;;;;;2.70;99.90;;;;;;5012059;28;19924;-59
2022/11/26 05:28:19;;;;;;;;;;;2.70;99.90;;;;;;5016186;28;19975;-56
2022/11/26 05:30:45;;;;;;;;;;;2.70;99.90;;;;;;5010649;28;19913;-58
2022/11/26 05:33:10;;;;;;;;;;;2.80;99.90;;;;;;5020234;28;19935;-57
2022/11/26 05:35:36;;;;;;;;;;;2.70;99.90;;;;;;5053721;22;19933;-61
2022/11/26 05:38:02;;;;;;;;;;;2.70;99.90;;;;;;5049638;28;20011;-64
2022/11/26 05:40:27;;;;;;;;;;;2.60;99.90;;;;;;5048800;28;19921;-64
2022/11/26 05:42:52;;;;;;;;;;;2.50;99.90;;;;;;5052492;28;19935;-62
2022/11/26 05:45:18;;;;;;;;;;;2.50;99.90;;;;;;5048971;28;19924;-63
2022/11/26 05:47:44;;;;;;;;;;;;;;;;;;5046304;28;19967;-64
2022/11/26 05:50:10;;;;;;;;;;;;;;;;;;5048848;28;21666;-64
2022/11/26 05:52:35;;;;;;;;;;;;;;;;;;5049325;28;19917;-64
2022/11/26 05:55:01;;;;;;;;;;;;;;;;;;5045952;28;20392;-62
2022/11/26 05:57:27;;;;;;;;;;;;;;;;;;5050658;28;19928;-64
2022/11/26 05:59:53;;;;;;;;;;;;;;;;;;5050177;28;20047;-63
2022/11/26 06:02:18;;;;;;;;;;;2.40;99.90;;;;;;5050738;28;20378;-62
2022/11/26 06:04:44;;;;;;;;;;;2.50;99.90;;;;;;5047213;28;19996;-63
2022/11/26 06:07:09;;;;;;;;;;;2.50;99.90;;;;;;5048255;28;20506;-60
2022/11/26 06:09:35;;;;;;;;;;;2.60;99.90;;;;;;5050695;28;20022;-62
2022/11/26 06:12:01;;;;;;;;;;;2.60;99.90;;;;;;5049650;28;19919;-63
2022/11/26 06:14:26;;;;;;;;;;;2.60;99.90;;;;;;5047630;28;20297;-62
2022/11/26 06:16:52;;;;;;;;;;;2.60;99.90;;;;;;5051948;28;19916;-64
2022/11/26 06:19:17;;;;;;;;;;;2.70;99.90;;;;;;5046563;28;19917;-64
2022/11/26 06:21:43;;;;;;;;;;;2.60;99.90;;;;;;5048531;28;20078;-64
2022/11/26 06:24:09;;;;;;;;;;;2.50;99.90;;;;;;5049150;28;19913;-63
2022/11/26 06:26:34;;;;;;;;;;;2.40;99.90;;;;;;5044296;28;19936;-64
2022/11/26 06:29:00;;;;;;;;;;;2.30;99.90;;;;;;5050536;28;19913;-66
2022/11/26 06:31:25;;;;;;;;;;;;;;;;;;5046447;28;19925;-63
2022/11/26 06:33:51;;;;;;;;;;;;;;;;;;5049064;28;19921;-62
2022/11/26 06:36:17;;;;;;;;;;;;;;;;;;5043155;28;19935;-64
2022/11/26 06:38:43;;;;;;;;;;;;;;;;;;5047286;28;20344;-62
2022/11/26 06:41:09;;;;;;;;;;;;;;;;;;5047745;28;19912;-64
2022/11/26 06:43:35;;;;;;;;;;;;;;;;;;5048803;28;19913;-62
2022/11/26 06:46:02;;;;;;;;;;;;;;;;;;5047391;28;22084;-61
2022/11/26 06:48:27;;;;;;;;;;;;;;;;;;5051470;28;19913;-64
2022/11/26 06:50:53;;;;;;;;;;;2.30;99.90;;;;;;5049950;28;19929;-64
2022/11/26 06:53:18;;;;;;;;;;;2.20;99.90;;;;;;5050634;28;19917;-59
2022/11/26 06:55:44;;;;;;;;;;;2.30;99.90;;;;;;5048649;28;19921;-64
2022/11/26 06:58:09;;;;;;;;;;;2.30;99.90;;;;;;5048005;28;20385;-62
2022/11/26 07:00:35;;;;;;;;;;;2.30;99.90;;;;;;5044079;28;19921;-64
2022/11/26 07:03:00;;;;;;;;;;;2.40;99.90;;;;;;5049191;28;19912;-64
2022/11/26 07:05:26;;;;;;;;;;;2.30;99.90;;;;;;5047988;28;19931;-63
2022/11/26 07:07:51;;;;;;;;;;;2.20;99.90;;;;;;5047943;28;19917;-63
2022/11/26 07:10:17;;;;;;;;;;;2.20;99.90;;;;;;5047340;28;19917;-64
2022/11/26 07:12:42;;;;;;;;;;;;;;;;;;5049459;28;20390;-64
2022/11/26 07:15:08;;;;;;;;;;;;;;;;;;5049688;28;19913;-64
2022/11/26 07:17:34;;;;;;;;;;;;;;;;;;5049875;28;19912;-62
2022/11/26 07:20:00;;;;;;;;;;;;;;;;;;5049604;28;19916;-62
2022/11/26 07:22:26;;;;;;;;;;;;;;;;;;5050979;28;19917;-62
2022/11/26 07:24:52;;;;;;;;;;;;;;;;;;5047444;28;19952;-64
2022/11/26 07:27:18;;;;;;;;;;;;;;;;;;5048652;28;20030;-64
2022/11/26 07:29:43;;;;;;;;;;;;;;;;;;5049214;28;19952;-64
2022/11/26 07:32:09;;;;;;;;;;;;;;;;;;5050625;28;19917;-64
2022/11/26 07:34:35;;;;;;;;;;;;;;;;;;5049812;28;19925;-62
2022/11/26 07:37:01;;;;;;;;;;;;;;;;;;5046513;28;20003;-61
2022/11/26 07:39:27;;;;;;;;;;;;;;;;;;5048001;28;20349;-65
2022/11/26 07:41:53;;;;;;;;;;;;;;;;;;5050025;28;19919;-64
2022/11/26 07:44:19;;;;;;;;;;;;;;;;;;5048811;28;19917;-62
2022/11/26 07:46:45;;;;;;;;;;;;;;;;;;5046547;28;19913;-61
2022/11/26 07:49:10;;;;;;;;;;;;;;;;;;5047783;28;20043;-62
2022/11/26 07:51:38;;;;;;;;;;;;;;;;;;5044880;28;19924;-63
2022/11/26 07:54:04;;;;;;;;;;;;;;;;;;5048398;28;19913;-64
2022/11/26 07:56:29;;;;;;;;;;;;;;;;;;5050094;28;20345;-64
2022/11/26 07:58:55;;;;;;;;;;;;;;;;;;5049122;28;19920;-64
2022/11/26 08:01:21;;;;;;;;;;;;;;;;;;5046730;28;19912;-63
2022/11/26 08:03:47;;;;;;;;;;;;;;;;;;5051240;28;19913;-63
2022/11/26 08:06:13;;;;;;;;;;;;;;;;;;5048616;28;20370;-63
2022/11/26 08:08:39;;;;;;;;;;;;;;;;;;5047262;28;19913;-63
2022/11/26 08:11:05;;;;;;;;;;;;;;;;;;5048504;28;20880;-61
2022/11/26 08:13:31;;;;;;;;;;;;;;;;;;5049421;28;19987;-62
2022/11/26 08:15:56;;;;;;;;;;;;;;;;;;5057246;28;20831;-61
2022/11/26 08:18:22;;;;;;;;;;;;;;;;;;5046446;28;19986;-63
2022/11/26 08:20:48;;;;;;;;;;;;;;;;;;5048781;28;20366;-63
2022/11/26 08:23:14;;;;;;;;;;;;;;;;;;5048524;28;19913;-63
2022/11/26 08:25:40;;;;;;;;;;;;;;;;;;5049234;28;19912;-64
2022/11/26 08:28:06;;;;;;;;;;;;;;;;;;5048467;28;19917;-64
2022/11/26 08:30:31;;;;;;;;;;;;;;;;;;5044969;28;20374;-63
2022/11/26 08:32:57;;;;;;;;;;;;;;;;;;5043789;28;19912;-63
2022/11/26 08:35:23;;;;;;;;;;;;;;;;;;5046848;28;20014;-64
2022/11/26 08:37:49;;;;;;;;;;;;;;;;;;5047935;28;19913;-63
2022/11/26 08:40:15;;;;;;;;;;;;;;;;;;5043213;28;19921;-63
2022/11/26 08:42:41;;;;;;;;;;;;;;;;;;5050485;28;20382;-64
2022/11/26 08:45:07;;;;;;;;;;;;;;;;;;5052339;28;19939;-65
2022/11/26 08:47:32;;;;;;;;;;;;;;;;;;5051145;28;19912;-63
2022/11/26 08:49:58;;;;;;;;;;;;;;;;;;5050412;28;19913;-65
2022/11/26 08:52:24;;;;;;;;;;;;;;;;;;5053178;28;19972;-63
2022/11/26 08:54:50;;;;;;;;;;;;;;;;;;5052749;28;19920;-64
2022/11/26 08:57:16;;;;;;;;;;;;;;;;;;5052968;28;19979;-59
2022/11/26 08:59:42;;;;;;;;;;;;;;;;;;5052860;28;20004;-64
2022/11/26 09:02:08;;;;;;;;;;;;;;;;;;5048152;28;19913;-63
2022/11/26 09:04:34;;;;;;;;;;;;;;;;;;5053498;28;20012;-64
2022/11/26 09:06:59;;;;;;;;;;;;;;;;;;5048483;28;19913;-64
2022/11/26 09:09:25;;;;;;;;;;;;;;;;;;5052947;28;19924;-62
2022/11/26 09:11:53;;;;;;;;;;;;;;;;;;5046612;28;19913;-64
2022/11/26 09:14:18;;;;;;;;;;;;;;;;;;5051125;28;20413;-65
2022/11/26 09:16:44;;;;;;;;;;;;;;;;;;5053696;28;19913;-63
2022/11/26 09:19:10;;;;;;;;;;;;;;;;;;5052185;28;20386;-64
2022/11/26 09:21:36;;;;;;;;;;;;;;;;;;5050395;28;19924;-65
2022/11/26 09:24:02;;;;;;;;;;;;;;;;;;5042275;28;19944;-62
2022/11/26 09:26:28;;;;;;;;;;;;;;;;;;5045677;28;19923;-64
2022/11/26 09:28:59;;;;;;;;;;;2.10;99.90;;;;;;5051714;28;20322;-64
2022/11/26 09:31:25;;;;;;;;;;;6.40;99.90;;;;;;5048586;28;19912;-64
2022/11/26 09:33:53;;;;;;;;;;;6.40;99.90;;;;;;5050870;28;19928;-63
2022/11/26 09:36:20;;;;;;;;;;;6.50;99.90;;;;;;5029046;28;20455;-64
2022/11/26 09:41:36;;;;;;;;;;;6.60;99.90;;;;;;5151097;22;20015;-58
2022/11/26 09:44:21;;;;;;;;;;;6.70;99.90;;;;;;5078750;28;20516;-60
2022/11/26 09:46:54;;;;;;;;;;;6.80;99.90;;;;;;5060605;28;19916;-58
2022/11/26 09:49:20;;;;;;;;;;;6.90;99.90;;;;;;5064593;28;19912;-59
2022/11/26 09:51:49;;;;;;;;;;;7.00;99.90;;;;;;5087690;28;20407;-58
2022/11/26 09:54:16;;;;;;;;;;;7.10;99.90;;;;;;5067881;28;20407;-58
2022/11/26 09:56:41;;;;;;;;;;;7.20;99.90;;;;;;5062860;28;20002;-56
2022/11/26 09:59:10;;;;;;;;;;;7.30;99.90;;;;;;5086006;28;19938;-58
2022/11/26 10:01:36;;;;;;;;;;;7.40;99.90;;;;;;5081010;28;19919;-56
2022/11/26 10:04:02;;;;;;;;;;;;;;;;;;5075015;28;19912;-58
2022/11/26 10:06:30;;;;;;;;;;;;;;;;;;5094540;22;19940;-66
2022/11/26 10:08:59;;;;;;;;;;;;;;;;;;5066342;28;19917;-66
2022/11/26 10:11:25;;;;;;;;;;;;;;;;;;5051415;28;19913;-65
2022/11/26 10:13:57;;;;;;;;;;;;;;;;;;5079628;28;19957;-66
2022/11/26 10:16:54;;;;;;;;;;;7.50;99.90;;;;;;5054291;28;19931;-65
2022/11/26 10:19:39;;;;;;;;;;;8.10;99.90;;;;;;5044589;28;19924;-67
2022/11/26 10:22:13;;;;;;;;;;;8.10;99.90;;;;;;5067451;28;19934;-66
2022/11/26 10:24:40;;;;;;;;;;;;;;;;;;5035988;28;19919;-66
2022/11/26 10:27:25;;;;;;;;;;;8.20;99.90;;;;;;5048774;28;19966;-66
2022/11/26 10:30:14;;;;;;;;;;;8.20;99.90;;;;;;5053573;28;19916;-66
2022/11/26 10:32:50;;;;;;;;;;;8.30;99.90;;;;;;5058005;28;19912;-66
2022/11/26 10:35:20;;;;;;;;;;;8.30;99.90;;;;;;5070453;28;19920;-66
2022/11/26 10:37:57;;;;;;;;;;;8.40;99.90;;;;;;5070058;28;20668;-66
2022/11/26 10:40:30;;;;;;;;;;;8.50;99.90;;;;;;5072934;28;19924;-66
2022/11/26 10:43:01;;;;;;;;;;;8.50;99.90;;;;;;5070626;28;20002;-65
2022/11/26 10:45:38;;;;;;;;;;;8.60;99.90;;;;;;5052797;28;19920;-66
2022/11/26 10:48:22;;;;;;;;;;;8.70;99.90;;;;;;5056527;28;19917;-67
2022/11/26 10:51:08;;;;;;;;;;;8.90;99.90;;;;;;5076595;28;19924;-65
2022/11/26 10:53:48;;;;;;;;;;;9.00;99.90;;;;;;5048751;28;19962;-65
2022/11/26 10:56:18;;;;;;;;;;;9.20;99.90;;;;;;5056544;28;19916;-65
2022/11/26 10:58:46;;;;;;;;;;;9.20;99.90;;;;;;5071975;28;20015;-65
2022/11/26 11:01:15;;;;;;;;;;;9.40;99.90;;;;;;5077305;28;19916;-65
2022/11/26 11:03:57;;;;;;;;;;;9.40;99.90;;;;;;5055836;28;19912;-65
2022/11/26 11:06:25;;;;;;;;;;;9.40;99.90;;;;;;5047804;28;19931;-65
2022/11/26 11:08:51;;;;;;;;;;;9.50;99.90;;;;;;5075142;28;19999;-65
2022/11/26 11:11:36;;;;;;;;;;;9.50;99.90;;;;;;5055652;28;19970;-65
2022/11/26 11:14:04;;;;;;;;;;;9.50;99.90;;;;;;5057885;28;19961;-66
2022/11/26 11:16:36;;;;;;;;;;;9.60;99.90;;;;;;5072421;28;19947;-65
2022/11/26 11:19:04;;;;;;;;;;;9.60;99.90;;;;;;5046368;28;19920;-65
2022/11/26 11:21:40;;;;;;;;;;;9.70;99.90;;;;;;5056226;28;20296;-66
2022/11/26 11:24:17;;;;;;;;;;;9.70;99.90;;;;;;5071876;28;20450;-64
2022/11/26 11:26:44;;;;;;;;;;;9.90;99.90;;;;;;5052476;28;19919;-62
2022/11/26 11:29:28;;;;;;;;;;;9.90;99.90;;;;;;5073761;28;19912;-62
2022/11/26 11:31:55;;;;;;;;;;;9.90;99.90;;;;;;5071402;28;19946;-64
2022/11/26 11:34:28;;;;;;;;;;;10.00;99.90;;;;;;5077684;28;20384;-64
2022/11/26 11:36:59;;;;;;;;;;;10.00;99.90;;;;;;5057087;28;19966;-65
2022/11/26 11:39:29;;;;;;;;;;;10.10;99.90;;;;;;5050243;28;19917;-64
2022/11/26 11:42:02;;;;;;;;;;;10.10;99.90;;;;;;5069162;28;19917;-64
2022/11/26 11:44:45;;;;;;;;;;;10.20;99.90;;;;;;5059331;28;19913;-65
2022/11/26 11:47:19;;;;;;;;;;;10.40;99.90;;;;;;5052914;28;19912;-64
2022/11/26 11:49:54;;;;;;;;;;;10.50;99.90;;;;;;5055955;28;19931;-63
2022/11/26 11:52:40;;;;;;;;;;;10.40;99.90;;;;;;5054544;28;19919;-64
2022/11/26 11:55:12;;;;;;;;;;;10.40;99.90;;;;;;5049477;28;19913;-64
2022/11/26 11:57:46;;;;;;;;;;;10.30;99.90;;;;;;5059656;28;19917;-61
2022/11/26 12:00:20;;;;;;;;;;;10.30;99.90;;;;;;5073299;28;19931;-64
2022/11/26 12:02:45;;;;;;;;;;;10.40;99.90;;;;;;5073708;28;19913;-63
2022/11/26 12:05:30;;;;;;;;;;;10.40;99.90;;;;;;5070868;28;20250;-64
2022/11/26 12:08:03;;;;;;;;;;;10.40;99.90;;;;;;5056645;28;19935;-64
2022/11/26 12:10:47;;;;;;;;;;;10.40;99.90;;;;;;5050150;28;19916;-62
2022/11/26 12:13:16;;;;;;;;;;;10.40;99.90;;;;;;5052617;28;19924;-61
2022/11/26 12:15:45;;;;;;;;;;;10.40;99.90;;;;;;5037070;28;19970;-63
2022/11/26 12:18:25;;;;;;;;;;;10.40;99.90;;;;;;5072616;28;19913;-61
2022/11/26 12:20:54;;;;;;;;;;;10.40;99.90;;;;;;5080060;28;19912;-63
2022/11/26 12:23:37;;;;;;;;;;;10.50;99.90;;;;;;5076394;28;20293;-64
2022/11/26 12:26:08;;;;;;;;;;;10.50;99.90;;;;;;5051056;28;19928;-63
2022/11/26 12:28:40;;;;;;;;;;;10.50;99.90;;;;;;5078866;28;19981;-63
2022/11/26 12:31:37;;;;;;;;;;;10.40;99.90;;;;;;5056406;28;19918;-63
2022/11/26 12:34:11;;;;;;;;;;;10.40;99.90;;;;;;5035725;28;19924;-65
2022/11/26 12:36:42;;;;;;;;;;;10.50;99.90;;;;;;5061354;28;19912;-62
2022/11/26 12:39:17;;;;;;;;;;;10.60;99.90;;;;;;5056019;28;19936;-64
2022/11/26 12:41:51;;;;;;;;;;;10.60;99.90;;;;;;5056154;28;19920;-63
2022/11/26 12:44:30;;;;;;;;;;;10.60;99.90;;;;;;5075576;28;19916;-62
2022/11/26 12:46:55;;;;;;;;;;;10.70;99.90;;;;;;5052965;28;20264;-64
2022/11/26 12:49:35;;;;;;;;;;;10.70;99.90;;;;;;5074008;28;20473;-64
2022/11/26 12:52:26;;;;;;;;;;;10.50;99.90;;;;;;5057417;28;19969;-64
2022/11/26 12:55:03;;;;;;;;;;;10.40;99.90;;;;;;5056738;28;19922;-63
2022/11/26 13:00:35;;;;;;;;;;;10.50;99.90;;;;;;5059494;28;19955;-64
2022/11/26 13:03:01;;;;;;;;;;;10.50;99.90;;;;;;5053294;28;19947;-64
2022/11/26 13:05:49;;;;;;;;;;;10.40;99.90;;;;;;5070094;28;19948;-62
2022/11/26 13:08:27;;;;;;;;;;;10.30;99.90;;;;;;5065375;28;19920;-64
2022/11/26 13:11:13;;;;;;;;;;;10.30;99.90;;;;;;5077897;28;19927;-61
2022/11/26 13:13:59;;;;;;;;;;;10.30;99.90;;;;;;5045047;28;19927;-65
2022/11/26 13:16:37;;;;;;;;;;;10.30;99.90;;;;;;5050729;28;19924;-63
2022/11/26 13:19:10;;;;;;;;;;;10.20;99.90;;;;;;5066817;28;19931;-61
2022/11/26 13:21:36;;;;;;;;;;;10.20;99.90;;;;;;5046016;28;19928;-60
2022/11/26 13:24:23;;;;;;;;;;;10.10;99.90;;;;;;5077227;28;19912;-64
2022/11/26 13:27:05;;;;;;;;;;;10.10;99.90;;;;;;5043074;28;19916;-61
2022/11/26 13:29:30;;;;;;;;;;;10.10;99.90;;;;;;5034824;28;19917;-62
2022/11/26 13:32:24;;;;;;;;;;;10.10;99.90;;;;;;5069328;28;19916;-60
2022/11/26 13:34:50;;;;;;;;;;;10.10;99.90;;;;;;5042291;28;19912;-60
2022/11/26 13:37:34;;;;;;;;;;;10.10;99.90;;;;;;5070318;28;20324;-62
2022/11/26 13:40:02;;;;;;;;;;;10.10;99.90;;;;;;5072559;28;19924;-60
2022/11/26 13:42:28;;;;;;;;;;;10.10;99.90;;;;;;5070385;28;20025;-62
2022/11/26 13:44:57;;;;;;;;;;;10.10;99.90;;;;;;5068856;28;20009;-62
2022/11/26 13:47:25;;;;;;;;;;;10.00;99.90;;;;;;5071735;28;19999;-61
2022/11/26 13:49:58;;;;;;;;;;;10.00;99.90;;;;;;5070365;28;19958;-61
2022/11/26 13:52:27;;;;;;;;;;;10.10;99.90;;;;;;5070838;28;19912;-63
2022/11/26 13:54:57;;;;;;;;;;;10.20;99.90;;;;;;5073473;28;19931;-61
2022/11/26 13:57:30;;;;;;;;;;;10.30;99.90;;;;;;5069024;28;20022;-63
2022/11/26 13:59:56;;;;;;;;;;;10.30;99.90;;;;;;5071164;28;19920;-63
2022/11/26 14:02:35;;;;;;;;;;;10.40;99.90;;;;;;5073941;28;19970;-61
2022/11/26 14:05:03;;;;;;;;;;;10.20;99.90;;;;;;5066498;28;19962;-63
2022/11/26 14:07:28;;;;;;;;;;;10.20;99.90;;;;;;5070641;28;19930;-59
2022/11/26 14:09:55;;;;;;;;;;;10.20;99.90;;;;;;5066696;28;19917;-63
2022/11/26 14:12:21;;;;;;;;;;;10.30;99.90;;;;;;5069010;28;20026;-64
2022/11/26 14:14:48;;;;;;;;;;;10.20;99.90;;;;;;5068041;28;19916;-63
2022/11/26 14:17:23;;;;;;;;;;;10.10;99.90;;;;;;5073219;28;19919;-63
2022/11/26 14:19:50;;;;;;;;;;;10.10;99.90;;;;;;5070616;28;19966;-61
2022/11/26 14:22:19;;;;;;;;;;;9.90;99.90;;;;;;5070556;28;19919;-62
2022/11/26 14:24:50;;;;;;;;;;;9.80;99.90;;;;;;5068847;28;20604;-61
2022/11/26 14:27:19;;;;;;;;;;;9.80;99.90;;;;;;5068318;28;19920;-60
2022/11/26 14:29:57;;;;;;;;;;;9.70;99.90;;;;;;5065883;28;20423;-63
2022/11/26 14:32:24;;;;;;;;;;;9.70;99.90;;;;;;5055750;28;19923;-61
2022/11/26 14:34:51;;;;;;;;;;;9.50;99.90;;;;;;5073441;28;19912;-62
2022/11/26 14:37:18;;;;;;;;;;;9.50;99.90;;;;;;5064335;28;19952;-63
2022/11/26 14:39:44;;;;;;;;;;;9.40;99.90;;;;;;5066798;28;20354;-62
2022/11/26 14:42:16;;;;;;;;;;;9.40;99.90;;;;;;5067752;28;19927;-62
2022/11/26 14:44:42;;;;;;;;;;;9.30;99.90;;;;;;5071291;28;19942;-59
2022/11/26 14:47:12;;;;;;;;;;;9.20;99.90;;;;;;5073306;28;19919;-63
2022/11/26 14:49:39;;;;;;;;;;;9.20;99.90;;;;;;5064184;28;19974;-63
2022/11/26 14:52:14;;;;;;;;;;;9.20;99.90;;;;;;5074271;28;19912;-62
2022/11/26 14:54:40;;;;;;;;;;;9.10;99.90;;;;;;5076230;28;19916;-63
2022/11/26 14:57:09;;;;;;;;;;;9.10;99.90;;;;;;5054725;28;20313;-62
2022/11/26 14:59:34;;;;;;;;;;;9.00;99.90;;;;;;5069202;28;19920;-62
2022/11/26 15:02:00;;;;;;;;;;;9.00;99.90;;;;;;5072794;28;19923;-62
2022/11/26 15:04:27;;;;;;;;;;;8.90;99.90;;;;;;5062735;28;20023;-61
2022/11/26 15:06:53;;;;;;;;;;;8.80;99.90;;;;;;5064139;28;19924;-58
2022/11/26 15:09:23;;;;;;;;;;;8.80;99.90;;;;;;5063390;28;19927;-62
2022/11/26 15:12:03;;;;;;;;;;;8.70;99.90;;;;;;5069565;28;19959;-62
2022/11/26 15:14:49;;;;;;;;;;;8.60;99.90;;;;;;5067941;28;20386;-63